Tropical Cyclones
[Index]
Main Index Home Page Stock Weather Photos Extreme Storms Discussion Storm News and Storm Chasing Reports Tropical Cyclones / Hurricanes / Typhoons Weather Data and Links Wild Fires / Bushfires Weather Observation Techniques Weather Picture Catalogue Tornado Pictures and Reports Stock Video Footage and DVDs for sale
Season 2014-2015 Tropical Cyclone MARCIA Track Map
Season 2014-2015 Summaries (Operational Data): [AU] [SIO] [SPAC] [SH]
<<- Previous TC | 2014-2015 Season | Next TC ->>

click for intensity scale information  Lat/long Grid: Show Hide

 Date Labels: Show Hide

Operational Tropical Cyclone Data : JTWC Advisories

Name: MARCIA
Number: 1513

13 Feb 2015 06:00 UTC to 01 Mar 2015 00:00 UTC

    date/time    lat    long     hPa   cat  kts
2015-02-13 06   14.2   151.3    1010         15          
2015-02-13 12   13.7   150.2    1010         15          
2015-02-13 18   14.1   150.5    1010         15          
2015-02-14 00   14.4   150.7    1007         15          
2015-02-14 06   15.0   151.0    1006         20          
2015-02-14 12   15.7   151.2    1005         15          
2015-02-14 18   15.9   151.2    1010         15          
2015-02-15 00   16.0   151.1    1004         20          
2015-02-15 06   16.0   150.8    1004         25          
2015-02-15 12   15.6   150.8    1004         25          
2015-02-15 18   15.4   151.2    1004         25          
2015-02-16 00   14.8   154.6    1004         25          
2015-02-16 06   14.7   154.8    1004         25          
2015-02-16 12   14.5   155.0    1004         25          
2015-02-16 18   14.5   155.2    1004         25          
2015-02-17 00   14.7   155.4    1000         30          
2015-02-17 06   14.8   155.6    1000         30          
2015-02-17 12   15.0   155.8    1000         30          
2015-02-17 18   15.5   156.2    1000         30          
2015-02-18 00   16.5   155.9     996    1    35          
2015-02-18 06   17.2   155.3     996    1    35          
2015-02-18 12   18.0   154.6     993    1    40          
2015-02-18 18   19.0   153.4     989    1    45          
2015-02-19 00   19.9   152.0     978    2    60          
2015-02-19 06   20.6   150.8     956    4    90          
2015-02-19 12   20.8   150.6     937    5   115          
2015-02-19 18   21.7   150.5     941    5   110          
2015-02-20 00   22.8   150.5     948    4   100          
2015-02-20 06   23.8   150.6     967    3    75          
2015-02-20 12   24.6   151.0     985    2    50          
2015-02-20 18   25.4   151.6    1003         25          
2015-02-21 00   26.2   152.2    1007         20          
2015-02-21 06   27.0   153.1    1004         25          
2015-02-21 12   27.7   154.0    1004         25          
2015-02-21 18   28.0   154.7    1000         30          
2015-02-22 00   27.6   155.2     996    1    35          
2015-02-22 06   26.9   155.5     996    1    35          
2015-02-22 12   26.1   155.4     996    1    35          
2015-02-22 18   25.6   155.3    1000         30          
2015-02-23 00   25.2   155.3    1000         30          
2015-02-23 06   24.8   155.4    1004         25          
2015-02-23 12   24.2   155.8    1007         20          
2015-02-23 18   23.5   156.3    1005         20          
2015-02-24 00   23.0   156.8    1005         20          
2015-02-24 06   22.4   157.0    1003         20          
2015-02-24 12   21.6   157.2    1003         20          
2015-02-24 18   21.5   157.4    1005         15          
2015-02-25 00   20.6   157.3    1005         15          
2015-02-25 06   20.0   156.8    1005         15          
2015-02-25 12   18.3   158.3    1001                     
2015-02-25 18   19.7   159.4    1000                     
2015-02-26 00   19.9   160.0    1002                     
2015-02-26 06   19.6   160.4    1000                     
2015-02-26 12   19.3   160.4    1002                     
2015-02-26 18   19.5   160.1    1001                     
2015-02-27 00   18.7   160.5    1003                     
2015-02-27 06   19.1   161.7    1001                     
2015-02-27 12   18.7   162.3    1003                     
2015-02-27 18   19.7   163.3    1002                     
2015-02-28 00   19.3   162.7    1003                     
2015-02-28 06   18.8   162.9    1002                     
2015-02-28 12   18.6   162.9    1005                     
2015-02-28 18   18.7   161.4    1003                     
2015-03-01 00   18.4   161.0    1006                     
Winds are 10-min average.

Tropical cyclone tracks developed by Michael Bath using operational warnings and advisories and Google Maps.


[Australian Severe Weather index] [Copyright Notice] [Email Contacts] [Search This Site] [Privacy Policy]
Document: tropical_cyclone_marcia.htm Updated: 2 May 2017